-8.9C
небольшой снегопад
небольшой снегопад
Дата и времяТемператураДавление, мм рт.ст.Влажность, %Осадки
МинимумМаксимум
04.12.2022 17:00-18.09C-12.63C77686облачно с прояснениями
04.12.2022 20:00-20.87C-17.21C77793облачно с прояснениями
04.12.2022 23:00-23.26C-23.26C779100пасмурно
05.12.2022 02:00-24.55C-24.55C780100пасмурно
05.12.2022 05:00-22.11C-22.11C780100пасмурно
05.12.2022 08:00-20.52C-20.52C78099пасмурно
05.12.2022 11:00-17.09C-17.09C78097пасмурно
05.12.2022 14:00-15.12C-15.12C78095пасмурно
05.12.2022 17:00-13.99C-13.99C77996пасмурно
05.12.2022 20:00-12.78C-12.78C77896небольшой снег
05.12.2022 23:00-12.79C-12.79C77896пасмурно
06.12.2022 02:00-13.87C-13.87C77797пасмурно
06.12.2022 05:00-15.39C-15.39C77797пасмурно
06.12.2022 08:00-15.47C-15.47C77797пасмурно
06.12.2022 11:00-17.39C-17.39C77797пасмурно
06.12.2022 14:00-17.77C-17.77C77797облачно с прояснениями
06.12.2022 17:00-20.06C-20.06C77799облачно с прояснениями
06.12.2022 20:00-20.05C-20.05C77799пасмурно
06.12.2022 23:00-20.47C-20.47C77699пасмурно
07.12.2022 02:00-19.71C-19.71C77598пасмурно
07.12.2022 05:00-18.89C-18.89C77497пасмурно
07.12.2022 08:00-18.17C-18.17C77395пасмурно
07.12.2022 11:00-17.04C-17.04C77195пасмурно
07.12.2022 14:00-15.03C-15.03C76994пасмурно
07.12.2022 17:00-15C-15C76894пасмурно
07.12.2022 20:00-14.59C-14.59C76592пасмурно
07.12.2022 23:00-13.32C-13.32C76489пасмурно
08.12.2022 02:00-12.46C-12.46C76388пасмурно
08.12.2022 05:00-12.17C-12.17C76291пасмурно
08.12.2022 08:00-13.02C-13.02C76395пасмурно
08.12.2022 11:00-14.37C-14.37C76397пасмурно
08.12.2022 14:00-15.75C-15.75C76498пасмурно
08.12.2022 17:00-17.74C-17.74C76598пасмурно
08.12.2022 20:00-17.4C-17.4C76496облачно с прояснениями
08.12.2022 23:00-17.88C-17.88C76497облачно с прояснениями
09.12.2022 02:00-17.53C-17.53C76397пасмурно
09.12.2022 05:00-15.88C-15.88C76396пасмурно
09.12.2022 08:00-14.57C-14.57C76295пасмурно
09.12.2022 11:00-13.36C-13.36C76493небольшой снег
09.12.2022 14:00-20.8C-20.8C76785облачно с прояснениями
Дата и время наблюдения: 04.12.2022 13:59:42